sensor_id;sensor_type;location;lat;lon;timestamp;pressure;altitude;pressure_sealevel;temperature;humidity
72855;BME280;60991;51.278;22.550;2023-03-01T00:01:26;100358.56;;;1.10;57.57
72855;BME280;60991;51.278;22.550;2023-03-01T00:02:56;100364.63;;;1.10;57.70
72855;BME280;60991;51.278;22.550;2023-03-01T00:04:27;100361.34;;;1.08;56.92
72855;BME280;60991;51.278;22.550;2023-03-01T00:05:57;100355.28;;;1.08;57.38
72855;BME280;60991;51.278;22.550;2023-03-01T00:07:27;100357.91;;;1.08;57.29
72855;BME280;60991;51.278;22.550;2023-03-01T00:08:58;100364.09;;;1.07;57.37
72855;BME280;60991;51.278;22.550;2023-03-01T00:10:28;100362.31;;;1.07;57.01
72855;BME280;60991;51.278;22.550;2023-03-01T00:11:58;100370.97;;;1.08;57.67
72855;BME280;60991;51.278;22.550;2023-03-01T00:13:28;100360.97;;;1.03;57.43
72855;BME280;60991;51.278;22.550;2023-03-01T00:14:58;100358.28;;;0.95;57.12
72855;BME280;60991;51.278;22.550;2023-03-01T00:16:31;100366.22;;;0.85;57.19
72855;BME280;60991;51.278;22.550;2023-03-01T00:18:01;100364.72;;;0.83;57.96
72855;BME280;60991;51.278;22.550;2023-03-01T00:19:32;100360.59;;;0.80;57.85
72855;BME280;60991;51.278;22.550;2023-03-01T00:21:02;100360.09;;;0.77;57.87
72855;BME280;60991;51.278;22.550;2023-03-01T00:22:33;100355.00;;;0.75;58.18
72855;BME280;60991;51.278;22.550;2023-03-01T00:24:03;100355.81;;;0.76;58.23
72855;BME280;60991;51.278;22.550;2023-03-01T00:25:41;100351.56;;;0.75;58.08
72855;BME280;60991;51.278;22.550;2023-03-01T00:27:11;100352.25;;;0.77;58.24
72855;BME280;60991;51.278;22.550;2023-03-01T00:28:42;100354.03;;;0.76;57.92
72855;BME280;60991;51.278;22.550;2023-03-01T00:30:12;100342.63;;;0.77;58.08
72855;BME280;60991;51.278;22.550;2023-03-01T00:31:43;100339.84;;;0.79;58.07
72855;BME280;60991;51.278;22.550;2023-03-01T00:33:13;100340.38;;;0.82;58.11
72855;BME280;60991;51.278;22.550;2023-03-01T00:34:43;100344.63;;;0.83;58.26
72855;BME280;60991;51.278;22.550;2023-03-01T00:36:15;100338.44;;;0.84;57.81
72855;BME280;60991;51.278;22.550;2023-03-01T00:37:45;100335.28;;;0.81;58.34
72855;BME280;60991;51.278;22.550;2023-03-01T00:39:15;100329.09;;;0.82;57.89
72855;BME280;60991;51.278;22.550;2023-03-01T00:40:45;100329.69;;;0.76;57.82
72855;BME280;60991;51.278;22.550;2023-03-01T00:42:16;100325.91;;;0.70;58.26
72855;BME280;60991;51.278;22.550;2023-03-01T00:43:46;100320.16;;;0.66;58.55
72855;BME280;60991;51.278;22.550;2023-03-01T00:45:17;100326.66;;;0.62;58.33
72855;BME280;60991;51.278;22.550;2023-03-01T00:46:50;100323.38;;;0.60;58.51
72855;BME280;60991;51.278;22.550;2023-03-01T00:48:20;100330.69;;;0.57;59.03
72855;BME280;60991;51.278;22.550;2023-03-01T00:49:50;100322.84;;;0.57;58.53
72855;BME280;60991;51.278;22.550;2023-03-01T00:51:23;100317.63;;;0.57;58.96
72855;BME280;60991;51.278;22.550;2023-03-01T00:52:56;100324.00;;;0.54;58.67
72855;BME280;60991;51.278;22.550;2023-03-01T00:54:27;100323.66;;;0.57;58.80
72855;BME280;60991;51.278;22.550;2023-03-01T00:55:57;100327.91;;;0.58;58.80
72855;BME280;60991;51.278;22.550;2023-03-01T00:57:28;100323.81;;;0.56;59.00
72855;BME280;60991;51.278;22.550;2023-03-01T00:58:58;100325.78;;;0.54;59.28
72855;BME280;60991;51.278;22.550;2023-03-01T01:00:28;100310.69;;;0.48;59.21
72855;BME280;60991;51.278;22.550;2023-03-01T01:01:58;100310.69;;;0.48;59.31
72855;BME280;60991;51.278;22.550;2023-03-01T01:03:28;100310.00;;;0.46;59.56
72855;BME280;60991;51.278;22.550;2023-03-01T01:04:59;100310.00;;;0.46;59.26
72855;BME280;60991;51.278;22.550;2023-03-01T01:06:32;100317.03;;;0.45;59.20
72855;BME280;60991;51.278;22.550;2023-03-01T01:08:02;100313.44;;;0.46;59.22
72855;BME280;60991;51.278;22.550;2023-03-01T01:09:32;100310.84;;;0.46;58.95
72855;BME280;60991;51.278;22.550;2023-03-01T01:11:03;100307.09;;;0.49;59.60
72855;BME280;60991;51.278;22.550;2023-03-01T01:12:33;100307.94;;;0.49;59.52
72855;BME280;60991;51.278;22.550;2023-03-01T01:14:03;100306.81;;;0.52;59.49
72855;BME280;60991;51.278;22.550;2023-03-01T01:15:34;100306.97;;;0.50;59.44
72855;BME280;60991;51.278;22.550;2023-03-01T01:17:05;100315.78;;;0.49;59.61
72855;BME280;60991;51.278;22.550;2023-03-01T01:18:35;100312.09;;;0.42;59.22
72855;BME280;60991;51.278;22.550;2023-03-01T01:20:06;100315.81;;;0.40;59.83
72855;BME280;60991;51.278;22.550;2023-03-01T01:21:36;100314.50;;;0.36;59.85
72855;BME280;60991;51.278;22.550;2023-03-01T01:23:06;100313.97;;;0.32;60.23
72855;BME280;60991;51.278;22.550;2023-03-01T01:24:37;100314.56;;;0.26;59.92
72855;BME280;60991;51.278;22.550;2023-03-01T01:26:10;100319.41;;;0.21;60.56
72855;BME280;60991;51.278;22.550;2023-03-01T01:27:41;100319.41;;;0.21;60.49
72855;BME280;60991;51.278;22.550;2023-03-01T01:29:11;100316.28;;;0.17;60.60
72855;BME280;60991;51.278;22.550;2023-03-01T01:30:42;100319.63;;;0.10;60.75
72855;BME280;60991;51.278;22.550;2023-03-01T01:32:12;100312.75;;;0.09;60.97
72855;BME280;60991;51.278;22.550;2023-03-01T01:33:43;100316.41;;;-0.02;61.43
72855;BME280;60991;51.278;22.550;2023-03-01T01:35:13;100315.44;;;-0.01;61.23
72855;BME280;60991;51.278;22.550;2023-03-01T01:36:47;100311.03;;;-0.01;61.12
72855;BME280;60991;51.278;22.550;2023-03-01T01:38:18;100317.59;;;0.04;61.49
72855;BME280;60991;51.278;22.550;2023-03-01T01:39:48;100314.31;;;0.02;61.56
72855;BME280;60991;51.278;22.550;2023-03-01T01:41:20;100320.88;;;0.06;61.43
72855;BME280;60991;51.278;22.550;2023-03-01T01:42:50;100314.00;;;0.05;61.47
72855;BME280;60991;51.278;22.550;2023-03-01T01:44:24;100313.88;;;0.06;61.39
72855;BME280;60991;51.278;22.550;2023-03-01T01:45:59;100315.38;;;0.09;61.18
72855;BME280;60991;51.278;22.550;2023-03-01T01:47:31;100306.00;;;0.16;61.25
72855;BME280;60991;51.278;22.550;2023-03-01T01:49:05;100306.81;;;0.16;61.02
72855;BME280;60991;51.278;22.550;2023-03-01T01:50:38;100294.72;;;0.15;60.78
72855;BME280;60991;51.278;22.550;2023-03-01T01:52:14;100301.88;;;0.13;60.97
72855;BME280;60991;51.278;22.550;2023-03-01T01:53:51;100301.34;;;0.10;61.12
72855;BME280;60991;51.278;22.550;2023-03-01T01:55:26;100300.53;;;0.09;61.52
72855;BME280;60991;51.278;22.550;2023-03-01T01:57:01;100294.34;;;0.10;61.40
72855;BME280;60991;51.278;22.550;2023-03-01T01:58:33;100298.44;;;0.13;60.92
72855;BME280;60991;51.278;22.550;2023-03-01T02:00:07;100281.97;;;0.12;61.40
72855;BME280;60991;51.278;22.550;2023-03-01T02:01:38;100281.81;;;0.14;61.21
72855;BME280;60991;51.278;22.550;2023-03-01T02:03:15;100269.72;;;0.13;61.37
72855;BME280;60991;51.278;22.550;2023-03-01T02:04:48;100280.03;;;0.14;61.42
72855;BME280;60991;51.278;22.550;2023-03-01T02:06:39;100279.34;;;0.12;61.40
72855;BME280;60991;51.278;22.550;2023-03-01T02:08:13;100276.31;;;0.17;61.26
72855;BME280;60991;51.278;22.550;2023-03-01T02:09:47;100277.13;;;0.17;61.17
72855;BME280;60991;51.278;22.550;2023-03-01T02:11:18;100278.59;;;0.20;61.16
72855;BME280;60991;51.278;22.550;2023-03-01T02:12:49;100275.69;;;0.23;60.87
72855;BME280;60991;51.278;22.550;2023-03-01T02:14:20;100266.22;;;0.22;60.82
72855;BME280;60991;51.278;22.550;2023-03-01T02:15:51;100258.53;;;0.20;60.81
72855;BME280;60991;51.278;22.550;2023-03-01T02:17:21;100254.44;;;0.18;60.91
72855;BME280;60991;51.278;22.550;2023-03-01T02:18:52;100254.88;;;0.13;60.74
72855;BME280;60991;51.278;22.550;2023-03-01T02:20:38;100258.38;;;0.04;61.19
72855;BME280;60991;51.278;22.550;2023-03-01T02:22:27;100256.06;;;0.01;61.02
72855;BME280;60991;51.278;22.550;2023-03-01T02:24:04;100265.03;;;-0.02;61.28
72855;BME280;60991;51.278;22.550;2023-03-01T02:26:05;100269.44;;;-0.02;61.48
72855;BME280;60991;51.278;22.550;2023-03-01T02:29:30;100268.81;;;0.04;60.90
72855;BME280;60991;51.278;22.550;2023-03-01T02:31:01;100272.19;;;-0.04;61.28
72855;BME280;60991;51.278;22.550;2023-03-01T02:32:32;100271.78;;;-0.09;61.51
72855;BME280;60991;51.278;22.550;2023-03-01T02:34:05;100273.47;;;-0.17;61.82
72855;BME280;60991;51.278;22.550;2023-03-01T02:35:38;100268.59;;;-0.20;62.30
72855;BME280;60991;51.278;22.550;2023-03-01T02:37:13;100276.56;;;-0.22;62.36
72855;BME280;60991;51.278;22.550;2023-03-01T02:38:46;100272.66;;;-0.18;62.37
72855;BME280;60991;51.278;22.550;2023-03-01T02:40:18;100271.69;;;-0.17;62.33
72855;BME280;60991;51.278;22.550;2023-03-01T02:41:53;100264.00;;;-0.18;62.49
72855;BME280;60991;51.278;22.550;2023-03-01T02:43:29;100261.94;;;-0.15;62.36
72855;BME280;60991;51.278;22.550;2023-03-01T02:45:01;100263.56;;;-0.14;62.57
72855;BME280;60991;51.278;22.550;2023-03-01T02:46:31;100268.50;;;-0.11;62.48
72855;BME280;60991;51.278;22.550;2023-03-01T02:48:01;100268.50;;;-0.11;62.29
72855;BME280;60991;51.278;22.550;2023-03-01T02:49:36;100269.19;;;-0.09;62.02
72855;BME280;60991;51.278;22.550;2023-03-01T02:55:03;100267.09;;;-0.23;62.72
72855;BME280;60991;51.278;22.550;2023-03-01T02:56:35;100270.50;;;-0.22;62.00
72855;BME280;60991;51.278;22.550;2023-03-01T02:58:05;100275.06;;;-0.24;62.66
72855;BME280;60991;51.278;22.550;2023-03-01T02:59:37;100268.34;;;-0.27;62.62
72855;BME280;60991;51.278;22.550;2023-03-01T03:01:08;100266.53;;;-0.26;63.25
72855;BME280;60991;51.278;22.550;2023-03-01T03:02:38;100266.69;;;-0.28;63.03
72855;BME280;60991;51.278;22.550;2023-03-01T03:04:12;100263.78;;;-0.25;62.76
72855;BME280;60991;51.278;22.550;2023-03-01T03:05:43;100260.50;;;-0.27;62.98
72855;BME280;60991;51.278;22.550;2023-03-01T03:07:13;100264.38;;;-0.31;63.16
72855;BME280;60991;51.278;22.550;2023-03-01T03:08:43;100256.16;;;-0.36;63.35
72855;BME280;60991;51.278;22.550;2023-03-01T03:10:35;100252.72;;;-0.37;63.52
72855;BME280;60991;51.278;22.550;2023-03-01T03:12:06;100257.38;;;-0.30;63.41
72855;BME280;60991;51.278;22.550;2023-03-01T03:13:36;100258.03;;;-0.28;63.60
72855;BME280;60991;51.278;22.550;2023-03-01T03:15:08;100251.72;;;-0.26;63.30
72855;BME280;60991;51.278;22.550;2023-03-01T03:16:49;100257.91;;;-0.27;63.20
72855;BME280;60991;51.278;22.550;2023-03-01T03:18:19;100249.50;;;-0.21;63.21
72855;BME280;60991;51.278;22.550;2023-03-01T03:19:50;100242.16;;;-0.17;62.92
72855;BME280;60991;51.278;22.550;2023-03-01T03:21:20;100238.44;;;-0.15;62.91
72855;BME280;60991;51.278;22.550;2023-03-01T03:23:02;100240.78;;;-0.12;62.78
72855;BME280;60991;51.278;22.550;2023-03-01T03:24:32;100234.16;;;-0.06;62.57
72855;BME280;60991;51.278;22.550;2023-03-01T03:26:04;100234.97;;;-0.06;62.94
72855;BME280;60991;51.278;22.550;2023-03-01T03:27:35;100231.25;;;-0.03;62.53
72855;BME280;60991;51.278;22.550;2023-03-01T03:29:05;100230.28;;;-0.02;62.89
72855;BME280;60991;51.278;22.550;2023-03-01T03:30:37;100231.91;;;-0.01;62.55
72855;BME280;60991;51.278;22.550;2023-03-01T03:32:08;100226.69;;;-0.01;62.60
72855;BME280;60991;51.278;22.550;2023-03-01T03:33:38;100231.25;;;-0.03;62.30
72855;BME280;60991;51.278;22.550;2023-03-01T03:35:09;100231.69;;;-0.08;62.45
72855;BME280;60991;51.278;22.550;2023-03-01T03:36:40;100228.25;;;-0.08;62.44
72855;BME280;60991;51.278;22.550;2023-03-01T03:38:12;100234.59;;;-0.11;62.48
72855;BME280;60991;51.278;22.550;2023-03-01T03:39:43;100237.34;;;-0.12;62.60
72855;BME280;60991;51.278;22.550;2023-03-01T03:41:13;100234.34;;;-0.17;62.79
72855;BME280;60991;51.278;22.550;2023-03-01T03:42:43;100234.00;;;-0.22;62.90
72855;BME280;60991;51.278;22.550;2023-03-01T03:44:13;100231.53;;;-0.24;62.68
72855;BME280;60991;51.278;22.550;2023-03-01T03:45:45;100236.06;;;-0.26;62.75
72855;BME280;60991;51.278;22.550;2023-03-01T03:47:15;100233.31;;;-0.24;62.92
72855;BME280;60991;51.278;22.550;2023-03-01T03:48:46;100234.28;;;-0.25;62.90
72855;BME280;60991;51.278;22.550;2023-03-01T03:50:17;100231.13;;;-0.29;63.02
72855;BME280;60991;51.278;22.550;2023-03-01T03:51:47;100236.34;;;-0.29;63.05
72855;BME280;60991;51.278;22.550;2023-03-01T03:53:19;100234.03;;;-0.32;62.93
72855;BME280;60991;51.278;22.550;2023-03-01T03:54:49;100239.38;;;-0.33;63.24
72855;BME280;60991;51.278;22.550;2023-03-01T03:56:19;100231.03;;;-0.37;63.60
72855;BME280;60991;51.278;22.550;2023-03-01T03:57:50;100230.38;;;-0.39;63.86
72855;BME280;60991;51.278;22.550;2023-03-01T03:59:20;100226.00;;;-0.39;63.29
72855;BME280;60991;51.278;22.550;2023-03-01T04:00:55;100227.38;;;-0.44;63.71
72855;BME280;60991;51.278;22.550;2023-03-01T04:02:26;100225.88;;;-0.47;63.44
72855;BME280;60991;51.278;22.550;2023-03-01T04:03:56;100212.03;;;-0.47;63.98
72855;BME280;60991;51.278;22.550;2023-03-01T04:05:27;100201.72;;;-0.49;64.09
72855;BME280;60991;51.278;22.550;2023-03-01T04:06:57;100221.09;;;-0.51;63.79
72855;BME280;60991;51.278;22.550;2023-03-01T04:08:28;100216.03;;;-0.53;64.42
72855;BME280;60991;51.278;22.550;2023-03-01T04:09:58;100206.69;;;-0.55;64.37
72855;BME280;60991;51.278;22.550;2023-03-01T04:11:28;100206.88;;;-0.57;64.34
72855;BME280;60991;51.278;22.550;2023-03-01T04:12:58;100199.91;;;-0.66;64.86
72855;BME280;60991;51.278;22.550;2023-03-01T04:14:29;100205.13;;;-0.66;65.11
72855;BME280;60991;51.278;22.550;2023-03-01T04:15:59;100203.53;;;-0.77;65.46
72855;BME280;60991;51.278;22.550;2023-03-01T04:17:29;100199.66;;;-0.73;65.15
72855;BME280;60991;51.278;22.550;2023-03-01T04:18:59;100203.41;;;-0.75;65.46
72855;BME280;60991;51.278;22.550;2023-03-01T04:20:33;100198.84;;;-0.73;65.17
72855;BME280;60991;51.278;22.550;2023-03-01T04:22:04;100204.22;;;-0.75;64.98
72855;BME280;60991;51.278;22.550;2023-03-01T04:23:34;100192.81;;;-0.74;65.29
72855;BME280;60991;51.278;22.550;2023-03-01T04:25:05;100192.28;;;-0.77;65.55
72855;BME280;60991;51.278;22.550;2023-03-01T04:26:35;100198.69;;;-0.72;65.03
72855;BME280;60991;51.278;22.550;2023-03-01T04:28:05;100202.41;;;-0.74;64.96
72855;BME280;60991;51.278;22.550;2023-03-01T04:29:36;100190.38;;;-0.75;65.40
72855;BME280;60991;51.278;22.550;2023-03-01T04:31:14;100192.97;;;-0.75;65.28
72855;BME280;60991;51.278;22.550;2023-03-01T04:32:45;100197.72;;;-0.71;65.23
72855;BME280;60991;51.278;22.550;2023-03-01T04:34:15;100196.75;;;-0.70;65.10
72855;BME280;60991;51.278;22.550;2023-03-01T04:35:45;100199.09;;;-0.66;65.13
72855;BME280;60991;51.278;22.550;2023-03-01T04:37:16;100195.53;;;-0.65;65.06
72855;BME280;60991;51.278;22.550;2023-03-01T04:38:46;100190.31;;;-0.65;64.79
72855;BME280;60991;51.278;22.550;2023-03-01T04:40:16;100191.94;;;-0.64;64.63
72855;BME280;60991;51.278;22.550;2023-03-01T04:41:47;100182.34;;;-0.64;65.04
72855;BME280;60991;51.278;22.550;2023-03-01T04:43:17;100171.91;;;-0.64;64.82
72855;BME280;60991;51.278;22.550;2023-03-01T04:44:47;100169.59;;;-0.67;65.09
72855;BME280;60991;51.278;22.550;2023-03-01T04:46:20;100173.44;;;-0.71;65.31
72855;BME280;60991;51.278;22.550;2023-03-01T04:47:50;100180.59;;;-0.73;65.32
72855;BME280;60991;51.278;22.550;2023-03-01T04:49:20;100176.34;;;-0.74;65.33
72855;BME280;60991;51.278;22.550;2023-03-01T04:50:50;100179.94;;;-0.75;65.04
72855;BME280;60991;51.278;22.550;2023-03-01T04:52:20;100176.25;;;-0.82;65.52
72855;BME280;60991;51.278;22.550;2023-03-01T04:53:51;100179.50;;;-0.98;65.84
72855;BME280;60991;51.278;22.550;2023-03-01T04:55:21;100187.72;;;-0.93;66.35
72855;BME280;60991;51.278;22.550;2023-03-01T04:56:51;100187.25;;;-0.88;66.08
72855;BME280;60991;51.278;22.550;2023-03-01T04:58:26;100183.53;;;-0.86;65.92
72855;BME280;60991;51.278;22.550;2023-03-01T04:59:56;100192.03;;;-0.84;65.85
72855;BME280;60991;51.278;22.550;2023-03-01T05:01:26;100192.59;;;-0.80;65.97
72855;BME280;60991;51.278;22.550;2023-03-01T05:02:59;100202.03;;;-0.79;65.43
72855;BME280;60991;51.278;22.550;2023-03-01T05:04:30;100204.06;;;-0.73;65.73
72855;BME280;60991;51.278;22.550;2023-03-01T05:06:00;100198.28;;;-0.67;65.38
72855;BME280;60991;51.278;22.550;2023-03-01T05:07:30;100195.38;;;-0.64;65.24
72855;BME280;60991;51.278;22.550;2023-03-01T05:09:01;100193.97;;;-0.58;65.47
72855;BME280;60991;51.278;22.550;2023-03-01T05:10:33;100194.47;;;-0.55;65.46
72855;BME280;60991;51.278;22.550;2023-03-01T05:12:04;100185.94;;;-0.47;65.29
72855;BME280;60991;51.278;22.550;2023-03-01T05:13:36;100188.41;;;-0.46;64.93
72855;BME280;60991;51.278;22.550;2023-03-01T05:15:07;100188.03;;;-0.51;65.58
72855;BME280;60991;51.278;22.550;2023-03-01T05:16:37;100197.59;;;-0.42;65.26
72855;BME280;60991;51.278;22.550;2023-03-01T05:18:07;100194.38;;;-0.36;65.44
72855;BME280;60991;51.278;22.550;2023-03-01T05:19:38;100189.75;;;-0.42;64.94
72855;BME280;60991;51.278;22.550;2023-03-01T05:21:13;100186.69;;;-0.37;65.08
72855;BME280;60991;51.278;22.550;2023-03-01T05:22:44;100185.28;;;-0.31;64.92
72855;BME280;60991;51.278;22.550;2023-03-01T05:24:14;100185.81;;;-0.46;65.64
72855;BME280;60991;51.278;22.550;2023-03-01T05:25:44;100177.69;;;-0.43;65.36
72855;BME280;60991;51.278;22.550;2023-03-01T05:27:15;100177.72;;;-0.52;65.95
72855;BME280;60991;51.278;22.550;2023-03-01T05:28:45;100174.41;;;-0.45;65.85
72855;BME280;60991;51.278;22.550;2023-03-01T05:30:15;100166.72;;;-0.46;65.50
72855;BME280;60991;51.278;22.550;2023-03-01T05:31:46;100185.13;;;-0.48;65.73
72855;BME280;60991;51.278;22.550;2023-03-01T05:33:16;100182.63;;;-0.40;65.72
72855;BME280;60991;51.278;22.550;2023-03-01T05:34:47;100172.03;;;-0.38;65.57
72855;BME280;60991;51.278;22.550;2023-03-01T05:36:17;100172.53;;;-0.35;65.34
72855;BME280;60991;51.278;22.550;2023-03-01T05:37:48;100172.09;;;-0.30;65.63
72855;BME280;60991;51.278;22.550;2023-03-01T05:39:20;100178.97;;;-0.29;65.35
72855;BME280;60991;51.278;22.550;2023-03-01T05:40:50;100192.53;;;-0.25;65.28
72855;BME280;60991;51.278;22.550;2023-03-01T05:42:20;100192.38;;;-0.24;65.26
72855;BME280;60991;51.278;22.550;2023-03-01T05:43:51;100188.66;;;-0.21;65.07
72855;BME280;60991;51.278;22.550;2023-03-01T05:45:22;100202.75;;;-0.14;65.17
72855;BME280;60991;51.278;22.550;2023-03-01T05:46:53;100202.72;;;-0.32;65.41
72855;BME280;60991;51.278;22.550;2023-03-01T05:48:47;100204.00;;;-0.18;65.56
72855;BME280;60991;51.278;22.550;2023-03-01T05:50:25;100207.66;;;-0.11;65.40
72855;BME280;60991;51.278;22.550;2023-03-01T05:51:56;100210.84;;;-0.17;65.41
72855;BME280;60991;51.278;22.550;2023-03-01T05:53:26;100212.88;;;-0.29;65.58
72855;BME280;60991;51.278;22.550;2023-03-01T05:54:56;100205.81;;;-0.19;65.55
72855;BME280;60991;51.278;22.550;2023-03-01T05:56:27;100208.03;;;-0.42;65.92
72855;BME280;60991;51.278;22.550;2023-03-01T05:58:01;100218.00;;;-0.37;65.91
72855;BME280;60991;51.278;22.550;2023-03-01T05:59:32;100218.31;;;-0.40;65.96
72855;BME280;60991;51.278;22.550;2023-03-01T06:01:02;100215.97;;;-0.43;66.33
72855;BME280;60991;51.278;22.550;2023-03-01T06:02:32;100217.19;;;-0.38;66.05
72855;BME280;60991;51.278;22.550;2023-03-01T06:04:03;100217.66;;;-0.52;66.42
72855;BME280;60991;51.278;22.550;2023-03-01T06:05:34;100219.25;;;-0.68;66.98
72855;BME280;60991;51.278;22.550;2023-03-01T06:07:04;100221.31;;;-0.62;66.93
72855;BME280;60991;51.278;22.550;2023-03-01T06:08:34;100220.75;;;-0.66;66.88
72855;BME280;60991;51.278;22.550;2023-03-01T06:10:06;100224.53;;;-0.51;67.04
72855;BME280;60991;51.278;22.550;2023-03-01T06:11:36;100226.63;;;-0.37;66.48
72855;BME280;60991;51.278;22.550;2023-03-01T06:13:07;100230.72;;;-0.52;67.04
72855;BME280;60991;51.278;22.550;2023-03-01T06:14:37;100228.31;;;-0.63;67.34
72855;BME280;60991;51.278;22.550;2023-03-01T06:16:08;100232.56;;;-0.62;67.58
72855;BME280;60991;51.278;22.550;2023-03-01T06:17:40;100225.84;;;-0.64;67.33
72855;BME280;60991;51.278;22.550;2023-03-01T06:19:10;100221.66;;;-0.75;68.05
72855;BME280;60991;51.278;22.550;2023-03-01T06:20:40;100220.38;;;-0.71;68.03
72855;BME280;60991;51.278;22.550;2023-03-01T06:22:11;100226.81;;;-0.65;67.83
72855;BME280;60991;51.278;22.550;2023-03-01T06:23:41;100222.75;;;-0.50;67.36
72855;BME280;60991;51.278;22.550;2023-03-01T06:25:13;100225.97;;;-0.66;67.83
72855;BME280;60991;51.278;22.550;2023-03-01T06:26:44;100215.13;;;-0.61;67.62
72855;BME280;60991;51.278;22.550;2023-03-01T06:28:15;100214.34;;;-0.44;67.27
72855;BME280;60991;51.278;22.550;2023-03-01T06:29:45;100219.56;;;-0.44;67.46
72855;BME280;60991;51.278;22.550;2023-03-01T06:31:15;100212.28;;;-0.41;67.28
72855;BME280;60991;51.278;22.550;2023-03-01T06:32:46;100211.09;;;-0.28;66.89
72855;BME280;60991;51.278;22.550;2023-03-01T06:34:16;100209.22;;;-0.18;66.54
72855;BME280;60991;51.278;22.550;2023-03-01T06:35:49;100205.44;;;-0.24;66.88
72855;BME280;60991;51.278;22.550;2023-03-01T06:37:19;100211.47;;;-0.23;66.70
72855;BME280;60991;51.278;22.550;2023-03-01T06:38:49;100207.81;;;-0.13;66.59
72855;BME280;60991;51.278;22.550;2023-03-01T06:40:19;100204.75;;;-0.08;66.15
72855;BME280;60991;51.278;22.550;2023-03-01T06:41:50;100201.75;;;-0.31;67.25
72855;BME280;60991;51.278;22.550;2023-03-01T06:43:21;100203.84;;;-0.17;66.83
72855;BME280;60991;51.278;22.550;2023-03-01T06:44:51;100204.06;;;-0.46;67.34
72855;BME280;60991;51.278;22.550;2023-03-01T06:46:21;100203.66;;;-0.23;66.96
72855;BME280;60991;51.278;22.550;2023-03-01T06:47:51;100206.25;;;-0.23;67.44
72855;BME280;60991;51.278;22.550;2023-03-01T06:49:21;100206.00;;;-0.30;67.64
72855;BME280;60991;51.278;22.550;2023-03-01T06:50:52;100212.16;;;-0.21;66.99
72855;BME280;60991;51.278;22.550;2023-03-01T06:52:22;100209.88;;;-0.34;67.74
72855;BME280;60991;51.278;22.550;2023-03-01T06:53:52;100215.22;;;-0.36;67.66
72855;BME280;60991;51.278;22.550;2023-03-01T06:55:22;100220.59;;;-0.37;68.22
72855;BME280;60991;51.278;22.550;2023-03-01T06:56:53;100219.84;;;-0.47;68.38
72855;BME280;60991;51.278;22.550;2023-03-01T06:58:23;100218.34;;;-0.50;68.37
72855;BME280;60991;51.278;22.550;2023-03-01T06:59:53;100215.88;;;-0.51;68.67
72855;BME280;60991;51.278;22.550;2023-03-01T07:01:23;100224.66;;;-0.52;68.84
72855;BME280;60991;51.278;22.550;2023-03-01T07:02:54;100217.44;;;-0.58;69.07
72855;BME280;60991;51.278;22.550;2023-03-01T07:04:24;100226.84;;;-0.48;68.78
72855;BME280;60991;51.278;22.550;2023-03-01T07:05:54;100220.66;;;-0.47;68.89
72855;BME280;60991;51.278;22.550;2023-03-01T07:07:24;100210.81;;;-0.53;69.01
72855;BME280;60991;51.278;22.550;2023-03-01T07:08:55;100220.81;;;-0.48;69.10
72855;BME280;60991;51.278;22.550;2023-03-01T07:10:25;100207.78;;;-0.48;69.03
72855;BME280;60991;51.278;22.550;2023-03-01T07:11:56;100206.22;;;-0.41;68.99
72855;BME280;60991;51.278;22.550;2023-03-01T07:13:27;100207.38;;;-0.08;68.26
72855;BME280;60991;51.278;22.550;2023-03-01T07:14:57;100205.22;;;-0.13;68.32
72855;BME280;60991;51.278;22.550;2023-03-01T07:16:28;100217.00;;;-0.09;68.32
72855;BME280;60991;51.278;22.550;2023-03-01T07:17:58;100212.59;;;-0.08;68.12
72855;BME280;60991;51.278;22.550;2023-03-01T07:19:28;100216.47;;;0.06;67.73
72855;BME280;60991;51.278;22.550;2023-03-01T07:21:03;100207.28;;;0.19;67.57
72855;BME280;60991;51.278;22.550;2023-03-01T07:22:34;100211.31;;;0.31;66.78
72855;BME280;60991;51.278;22.550;2023-03-01T07:24:06;100202.50;;;0.32;66.47
72855;BME280;60991;51.278;22.550;2023-03-01T07:25:37;100205.47;;;0.55;66.32
72855;BME280;60991;51.278;22.550;2023-03-01T07:27:07;100204.34;;;0.40;66.79
72855;BME280;60991;51.278;22.550;2023-03-01T07:28:37;100201.69;;;0.58;66.02
72855;BME280;60991;51.278;22.550;2023-03-01T07:30:08;100209.03;;;0.54;66.31
72855;BME280;60991;51.278;22.550;2023-03-01T07:31:38;100205.13;;;0.58;66.02
72855;BME280;60991;51.278;22.550;2023-03-01T07:33:08;100205.81;;;0.60;66.25
72855;BME280;60991;51.278;22.550;2023-03-01T07:34:39;100198.34;;;0.65;66.08
72855;BME280;60991;51.278;22.550;2023-03-01T07:36:09;100201.00;;;0.74;65.51
72855;BME280;60991;51.278;22.550;2023-03-01T07:37:39;100206.53;;;0.71;65.77
72855;BME280;60991;51.278;22.550;2023-03-01T07:39:10;100211.41;;;0.91;65.01
72855;BME280;60991;51.278;22.550;2023-03-01T07:40:41;100210.53;;;0.83;65.72
72855;BME280;60991;51.278;22.550;2023-03-01T07:42:11;100197.47;;;0.83;65.53
72855;BME280;60991;51.278;22.550;2023-03-01T07:43:41;100207.25;;;0.81;65.81
72855;BME280;60991;51.278;22.550;2023-03-01T07:45:11;100209.59;;;0.66;66.17
72855;BME280;60991;51.278;22.550;2023-03-01T07:46:42;100218.56;;;0.63;66.31
72855;BME280;60991;51.278;22.550;2023-03-01T07:48:12;100213.03;;;0.92;65.44
72855;BME280;60991;51.278;22.550;2023-03-01T07:49:42;100214.41;;;1.04;64.57
72855;BME280;60991;51.278;22.550;2023-03-01T07:51:13;100220.81;;;0.84;65.71
72855;BME280;60991;51.278;22.550;2023-03-01T07:52:47;100218.22;;;0.84;65.99
72855;BME280;60991;51.278;22.550;2023-03-01T07:54:18;100220.38;;;0.89;65.81
72855;BME280;60991;51.278;22.550;2023-03-01T07:55:48;100220.63;;;0.78;66.23
72855;BME280;60991;51.278;22.550;2023-03-01T07:57:19;100216.72;;;0.82;66.09
72855;BME280;60991;51.278;22.550;2023-03-01T07:58:49;100215.47;;;0.94;65.59
72855;BME280;60991;51.278;22.550;2023-03-01T08:00:20;100223.53;;;1.00;64.80